Grajau, Brazil
Current Conditions -  °F | °C
As of 2:00 PM on Thursday 23 Oct 2014 (Local Time) from SBIZ Reporting Station
Scattered Clouds Scattered Clouds  
Wind Chill: 88°   Ceiling: Unl
Heat Index: 91°   Visibility: 6mi
Dew Point: 68°   Wind: 23mph
Humidity: 52%   Direction: 160°SSE
Pressure: 29.85"   Gusts: NA
Location:  5.82°S, 46.14°W
Report Text: SBIZ 231700Z 16020KT 9999 FEW007 SCT028 FEW032TCU 31/20 Q1011
Loading
Personal Weather Stations






























Interactive Weather Map
Tropical Storm Tracking
New forecast layout! Learn more

10-Day Weather Forecast

Advertisements
Track Severe Weather on mobile